createdAt,value
2018-12-18T00:00:54.152Z,297.60
2018-12-18T00:01:54.083Z,298.08
2018-12-18T00:02:54.085Z,298.91
2018-12-18T00:03:54.085Z,297.78
2018-12-18T00:04:54.064Z,297.44
2018-12-18T00:05:54.048Z,297.98
2018-12-18T00:06:54.061Z,298.22
2018-12-18T00:07:54.041Z,297.94
2018-12-18T00:08:54.022Z,297.68
2018-12-18T00:09:54.002Z,297.73
2018-12-18T00:10:54.001Z,298.38
2018-12-18T00:11:59.315Z,297.40
2018-12-18T00:12:54.979Z,297.78
2018-12-18T00:13:53.963Z,297.37
2018-12-18T00:14:53.973Z,297.33
2018-12-18T00:15:53.936Z,297.67
2018-12-18T00:16:53.927Z,298.39
2018-12-18T00:17:53.923Z,297.54
2018-12-18T00:18:53.907Z,297.99
2018-12-18T00:19:53.910Z,297.93
2018-12-18T00:20:53.882Z,298.17
2018-12-18T00:21:53.875Z,298.31
2018-12-18T00:22:53.885Z,297.94
2018-12-18T00:23:53.845Z,297.29
2018-12-18T00:24:53.846Z,298.25
2018-12-18T00:25:53.835Z,298.00
2018-12-18T00:26:53.850Z,297.38
2018-12-18T00:27:53.811Z,297.03
2018-12-18T00:28:53.802Z,297.95
2018-12-18T00:29:53.783Z,298.33
2018-12-18T00:30:53.790Z,298.09
2018-12-18T00:31:53.780Z,297.73
2018-12-18T00:32:53.760Z,297.88
2018-12-18T00:33:53.751Z,297.61
2018-12-18T00:34:53.760Z,298.31
2018-12-18T00:35:53.724Z,298.07
2018-12-18T00:36:53.734Z,297.67
2018-12-18T00:37:53.700Z,298.05
2018-12-18T00:38:53.689Z,297.04
2018-12-18T00:39:53.678Z,297.81
2018-12-18T00:40:53.674Z,297.98
2018-12-18T00:41:53.666Z,298.45
2018-12-18T00:42:53.649Z,297.82
2018-12-18T00:43:53.645Z,298.03
2018-12-18T00:44:53.627Z,297.54
2018-12-18T00:45:53.629Z,298.12
2018-12-18T00:46:53.608Z,297.73
2018-12-18T00:47:53.607Z,297.79
2018-12-18T00:48:53.598Z,298.09
2018-12-18T00:49:53.571Z,297.91
2018-12-18T00:50:53.581Z,297.93
2018-12-18T00:51:53.559Z,298.08
2018-12-18T00:52:53.533Z,297.76
2018-12-18T00:53:53.533Z,298.17
2018-12-18T00:54:53.559Z,296.87
2018-12-18T00:55:53.507Z,297.68
2018-12-18T00:56:53.496Z,297.95
2018-12-18T00:57:53.489Z,297.94
2018-12-18T00:58:53.477Z,298.07
2018-12-18T00:59:53.521Z,297.98
2018-12-18T01:00:53.472Z,298.58
2018-12-18T01:01:53.455Z,298.10
2018-12-18T01:02:53.441Z,297.65
2018-12-18T01:03:53.429Z,298.10
2018-12-18T01:04:53.416Z,297.90
2018-12-18T01:05:53.404Z,298.24
2018-12-18T01:06:53.388Z,298.03
2018-12-18T01:07:53.588Z,297.82
2018-12-18T01:08:53.366Z,297.60
2018-12-18T01:09:53.368Z,297.14
2018-12-18T01:10:53.416Z,297.72
2018-12-18T01:11:53.358Z,297.44
2018-12-18T01:12:53.324Z,297.90
2018-12-18T01:13:53.314Z,298.14
2018-12-18T01:14:53.306Z,297.82
2018-12-18T01:15:53.291Z,297.65
2018-12-18T01:16:53.293Z,297.87
2018-12-18T01:17:53.281Z,297.44
2018-12-18T01:18:53.260Z,297.70
2018-12-18T01:19:53.247Z,298.42
2018-12-18T01:20:53.276Z,297.58
2018-12-18T01:21:53.243Z,298.23
2018-12-18T01:22:53.235Z,297.77
2018-12-18T01:23:53.263Z,297.98
2018-12-18T01:24:53.212Z,297.97
2018-12-18T01:25:53.208Z,298.42
2018-12-18T01:26:53.183Z,297.96
2018-12-18T01:27:53.201Z,298.22
2018-12-18T01:28:53.182Z,297.84
2018-12-18T01:29:53.173Z,297.95
2018-12-18T01:30:53.140Z,297.96
2018-12-18T01:31:53.135Z,297.55
2018-12-18T01:32:53.119Z,298.03
2018-12-18T01:33:59.158Z,297.65
2018-12-18T01:34:54.096Z,297.52
2018-12-18T01:35:53.127Z,297.72
2018-12-18T01:36:53.092Z,297.84
2018-12-18T01:37:53.647Z,297.93
2018-12-18T01:38:53.063Z,298.60
2018-12-18T01:39:53.080Z,297.82
2018-12-18T01:40:53.088Z,297.84
2018-12-18T01:41:53.025Z,297.37
2018-12-18T01:42:53.017Z,298.43
2018-12-18T01:43:53.015Z,297.85
2018-12-18T01:44:52.987Z,297.90
2018-12-18T01:45:52.987Z,297.81
2018-12-18T01:46:52.978Z,298.16
2018-12-18T01:47:52.955Z,297.98
2018-12-18T01:48:53.033Z,298.56
2018-12-18T01:49:52.977Z,298.08
2018-12-18T01:50:52.925Z,297.65
2018-12-18T01:51:52.937Z,297.67
2018-12-18T01:52:53.624Z,297.04
2018-12-18T01:53:52.891Z,297.92
2018-12-18T01:54:52.903Z,297.93
2018-12-18T01:55:52.876Z,298.58
2018-12-18T01:56:52.873Z,297.79
2018-12-18T01:57:52.879Z,297.76
2018-12-18T01:58:52.845Z,298.29
2018-12-18T01:59:55.142Z,298.04
2018-12-18T02:00:52.832Z,297.52
2018-12-18T02:01:52.824Z,297.21
2018-12-18T02:02:52.809Z,298.26
2018-12-18T02:03:56.077Z,298.01
2018-12-18T02:04:52.869Z,297.27
2018-12-18T02:05:52.791Z,297.43
2018-12-18T02:06:52.770Z,298.59
2018-12-18T02:07:52.760Z,298.40
2018-12-18T02:08:52.748Z,297.39
2018-12-18T02:09:52.734Z,297.97
2018-12-18T02:10:52.721Z,298.18
2018-12-18T02:11:52.712Z,298.36
2018-12-18T02:12:52.713Z,297.48
2018-12-18T02:13:52.686Z,297.99
2018-12-18T02:14:52.676Z,298.46
2018-12-18T02:15:54.077Z,298.03
2018-12-18T02:16:53.578Z,297.96
2018-12-18T02:17:52.657Z,297.03
2018-12-18T02:18:52.643Z,298.04
2018-12-18T02:19:52.623Z,298.27
2018-12-18T02:20:52.621Z,298.81
2018-12-18T02:21:52.604Z,298.10
2018-12-18T02:22:52.582Z,298.26
2018-12-18T02:23:52.578Z,297.96
2018-12-18T02:24:52.564Z,297.87
2018-12-18T02:25:52.560Z,298.53
2018-12-18T02:26:52.556Z,297.64
2018-12-18T02:27:52.532Z,297.95
2018-12-18T02:28:52.519Z,297.59
2018-12-18T02:29:52.523Z,297.91
2018-12-18T02:30:52.508Z,297.39
2018-12-18T02:31:52.506Z,297.99
2018-12-18T02:32:52.491Z,298.18
2018-12-18T02:33:52.479Z,298.25
2018-12-18T02:34:52.459Z,297.82
2018-12-18T02:35:52.456Z,297.70
2018-12-18T02:36:52.441Z,297.61
2018-12-18T02:37:52.426Z,297.92
2018-12-18T02:38:52.415Z,297.97
2018-12-18T02:39:52.404Z,297.92
2018-12-18T02:40:52.396Z,298.11
2018-12-18T02:41:52.394Z,298.08
2018-12-18T02:42:52.375Z,297.64
2018-12-18T02:43:52.367Z,298.00
2018-12-18T02:44:52.363Z,297.55
2018-12-18T02:45:52.340Z,297.61
2018-12-18T02:46:52.333Z,297.76
2018-12-18T02:47:52.315Z,297.93
2018-12-18T02:48:52.316Z,297.99
2018-12-18T02:49:52.308Z,298.41
2018-12-18T02:50:52.287Z,297.92
2018-12-18T02:51:52.291Z,297.98
2018-12-18T02:52:52.272Z,297.98
2018-12-18T02:53:52.253Z,297.69
2018-12-18T02:54:52.254Z,297.93
2018-12-18T02:55:52.240Z,298.11
2018-12-18T02:56:52.225Z,297.76
2018-12-18T02:57:52.213Z,297.81
2018-12-18T02:58:52.205Z,297.64
2018-12-18T02:59:52.193Z,298.05
2018-12-18T03:00:52.195Z,297.74
2018-12-18T03:01:52.174Z,297.68
2018-12-18T03:02:52.169Z,297.81
2018-12-18T03:03:52.149Z,297.76
2018-12-18T03:04:52.147Z,297.83
2018-12-18T03:05:52.160Z,297.57
2018-12-18T03:06:52.126Z,297.70
2018-12-18T03:07:52.110Z,298.14
2018-12-18T03:08:52.097Z,298.55
2018-12-18T03:09:52.084Z,297.87
2018-12-18T03:10:52.087Z,297.70
2018-12-18T03:11:52.066Z,298.21
2018-12-18T03:12:52.080Z,297.62
2018-12-18T03:13:52.046Z,298.11
2018-12-18T03:14:52.038Z,298.07
2018-12-18T03:15:52.028Z,298.57
2018-12-18T03:16:52.650Z,297.98
2018-12-18T03:17:52.006Z,297.74
2018-12-18T03:18:52.014Z,298.01
2018-12-18T03:19:51.994Z,298.94
2018-12-18T03:20:51.972Z,298.17
2018-12-18T03:21:52.002Z,298.31
2018-12-18T03:22:51.982Z,298.18
2018-12-18T03:23:51.950Z,297.70
2018-12-18T03:24:51.965Z,297.96
2018-12-18T03:25:51.973Z,297.94
2018-12-18T03:26:51.913Z,298.66
2018-12-18T03:27:51.954Z,297.80
2018-12-18T03:28:51.904Z,298.65
2018-12-18T03:29:51.876Z,297.49
2018-12-18T03:30:51.861Z,298.00
2018-12-18T03:31:51.862Z,297.48
2018-12-18T03:32:51.848Z,297.40
2018-12-18T03:33:51.830Z,297.73
2018-12-18T03:34:51.833Z,297.68
2018-12-18T03:35:51.816Z,297.96
2018-12-18T03:36:51.816Z,298.52
2018-12-18T03:37:51.789Z,297.85
2018-12-18T03:38:51.779Z,298.31
2018-12-18T03:39:51.774Z,298.09
2018-12-18T03:40:51.790Z,298.07
2018-12-18T03:41:51.753Z,297.45
2018-12-18T03:42:51.743Z,298.01
2018-12-18T03:43:51.770Z,297.82
2018-12-18T03:44:51.714Z,298.15
2018-12-18T03:45:53.102Z,297.06
2018-12-18T03:46:51.690Z,297.50
2018-12-18T03:47:51.677Z,297.75
2018-12-18T03:48:51.679Z,297.54
2018-12-18T03:49:51.663Z,297.94
2018-12-18T03:50:51.655Z,297.85
2018-12-18T03:51:51.667Z,298.15
2018-12-18T03:52:51.629Z,298.59
2018-12-18T03:53:51.629Z,298.27
2018-12-18T03:54:51.608Z,297.79
2018-12-18T03:55:51.598Z,297.16
2018-12-18T03:56:51.597Z,297.53
2018-12-18T03:57:51.578Z,297.31
2018-12-18T03:58:51.569Z,298.56
2018-12-18T03:59:51.563Z,297.94
2018-12-18T04:00:51.539Z,298.25
2018-12-18T04:01:51.531Z,297.92
2018-12-18T04:02:51.549Z,297.04
2018-12-18T04:03:51.531Z,297.66
2018-12-18T04:04:51.504Z,298.00
2018-12-18T04:05:51.491Z,298.09
2018-12-18T04:06:51.481Z,297.87
2018-12-18T04:07:51.465Z,297.57
2018-12-18T04:08:51.462Z,297.74
2018-12-18T04:09:51.460Z,298.42
2018-12-18T04:10:51.439Z,297.59
2018-12-18T04:11:51.425Z,297.68
2018-12-18T04:12:51.416Z,298.04
2018-12-18T04:13:51.405Z,298.15
2018-12-18T04:14:51.419Z,297.89
2018-12-18T04:15:51.387Z,296.93
2018-12-18T04:16:51.373Z,298.68
2018-12-18T04:17:51.418Z,298.20
2018-12-18T04:18:51.353Z,297.05
2018-12-18T04:19:51.342Z,297.95
2018-12-18T04:20:51.332Z,297.92
2018-12-18T04:21:51.330Z,297.64
2018-12-18T04:22:51.313Z,298.10
2018-12-18T04:23:51.315Z,297.73
2018-12-18T04:24:51.292Z,297.82
2018-12-18T04:25:51.280Z,298.03
2018-12-18T04:26:51.278Z,297.18
2018-12-18T04:27:51.259Z,298.41
2018-12-18T04:28:51.248Z,298.36
2018-12-18T04:29:51.236Z,297.34
2018-12-18T04:30:51.220Z,297.96
2018-12-18T04:31:51.209Z,297.58
2018-12-18T04:32:51.221Z,296.90
2018-12-18T04:33:51.194Z,297.95
2018-12-18T04:34:51.206Z,297.69
2018-12-18T04:35:51.167Z,297.91
2018-12-18T04:36:51.162Z,298.22
2018-12-18T04:37:51.195Z,297.97
2018-12-18T04:38:51.140Z,298.31
2018-12-18T04:39:51.177Z,297.95
2018-12-18T04:40:51.155Z,297.16
2018-12-18T04:41:51.110Z,298.74
2018-12-18T04:42:51.105Z,297.83
2018-12-18T04:43:51.089Z,297.99
2018-12-18T04:44:51.080Z,298.05
2018-12-18T04:45:51.079Z,298.35
2018-12-18T04:46:51.047Z,297.81
2018-12-18T04:47:51.043Z,297.87
2018-12-18T04:48:51.039Z,298.15
2018-12-18T04:49:51.027Z,297.98
2018-12-18T04:50:51.673Z,297.73
2018-12-18T04:51:51.013Z,298.18
2018-12-18T04:52:51.035Z,297.86
2018-12-18T04:53:50.988Z,298.03
2018-12-18T04:54:50.964Z,297.25
2018-12-18T04:55:50.964Z,298.08
2018-12-18T04:56:50.952Z,297.83
2018-12-18T04:57:50.946Z,297.81
2018-12-18T04:58:50.942Z,298.47
2018-12-18T04:59:50.935Z,297.88
2018-12-18T05:00:50.903Z,297.81
2018-12-18T05:01:50.895Z,298.08
2018-12-18T05:02:50.891Z,298.15
2018-12-18T05:03:50.875Z,297.25
2018-12-18T05:04:50.875Z,297.81
2018-12-18T05:05:50.854Z,298.16
2018-12-18T05:06:51.720Z,297.89
2018-12-18T05:07:50.845Z,297.89
2018-12-18T05:08:50.831Z,298.41
2018-12-18T05:09:50.809Z,297.73
2018-12-18T05:10:50.801Z,297.94
2018-12-18T05:11:50.803Z,298.06
2018-12-18T05:12:50.784Z,298.54
2018-12-18T05:13:50.771Z,298.52
2018-12-18T05:14:50.756Z,297.87
2018-12-18T05:15:50.748Z,298.30
2018-12-18T05:16:50.742Z,298.19
2018-12-18T05:17:50.730Z,298.48
2018-12-18T05:18:50.726Z,298.80
2018-12-18T05:19:50.704Z,298.42
2018-12-18T05:20:50.719Z,298.06
2018-12-18T05:21:50.683Z,298.33
2018-12-18T05:22:50.683Z,298.35
2018-12-18T05:23:50.664Z,298.12
2018-12-18T05:24:50.655Z,298.20
2018-12-18T05:25:50.646Z,298.24
2018-12-18T05:26:50.633Z,298.88
2018-12-18T05:27:50.618Z,298.46
2018-12-18T05:28:50.610Z,298.23
2018-12-18T05:29:50.598Z,298.41
2018-12-18T05:30:50.599Z,298.61
2018-12-18T05:31:50.585Z,298.94
2018-12-18T05:32:50.566Z,299.04
2018-12-18T05:33:50.552Z,298.67
2018-12-18T05:34:56.353Z,298.10
2018-12-18T05:35:51.534Z,298.78
2018-12-18T05:36:50.523Z,298.12
2018-12-18T05:37:50.519Z,298.50
2018-12-18T05:38:50.508Z,298.44
2018-12-18T05:39:50.493Z,298.62
2018-12-18T05:40:50.487Z,297.89
2018-12-18T05:41:50.483Z,297.90
2018-12-18T05:42:50.473Z,297.55
2018-12-18T05:43:50.449Z,298.53
2018-12-18T05:44:50.445Z,297.89
2018-12-18T05:45:50.439Z,298.48
2018-12-18T05:46:50.414Z,298.58
2018-12-18T05:47:50.412Z,297.97
2018-12-18T05:48:50.395Z,297.63
2018-12-18T05:49:50.381Z,297.87
2018-12-18T05:50:50.379Z,298.30
2018-12-18T05:51:50.365Z,297.69
2018-12-18T05:52:50.359Z,297.79
2018-12-18T05:53:50.372Z,298.41
2018-12-18T05:54:50.334Z,297.87
2018-12-18T05:55:51.164Z,297.67
2018-12-18T05:56:50.321Z,297.97
2018-12-18T05:57:50.304Z,298.15
2018-12-18T05:58:50.287Z,297.39
2018-12-18T05:59:50.290Z,297.60
2018-12-18T06:00:50.273Z,297.80
2018-12-18T06:01:50.268Z,297.09
2018-12-18T06:02:50.257Z,297.58
2018-12-18T06:03:50.243Z,297.32
2018-12-18T06:04:50.229Z,297.74
2018-12-18T06:05:50.215Z,297.63
2018-12-18T06:06:50.212Z,297.03
2018-12-18T06:07:50.192Z,297.30
2018-12-18T06:08:50.187Z,297.35
2018-12-18T06:09:50.177Z,297.58
2018-12-18T06:10:50.163Z,297.74
2018-12-18T06:11:50.154Z,297.40
2018-12-18T06:12:50.149Z,297.37
2018-12-18T06:13:50.130Z,296.87
2018-12-18T06:14:50.144Z,296.67
2018-12-18T06:15:50.116Z,297.04
2018-12-18T06:16:50.115Z,297.67
2018-12-18T06:17:50.091Z,296.60
2018-12-18T06:18:50.079Z,296.55
2018-12-18T06:19:50.065Z,296.87
2018-12-18T06:20:50.070Z,296.98
2018-12-18T06:21:50.050Z,296.83
2018-12-18T06:22:50.061Z,297.17
2018-12-18T06:23:50.025Z,296.45
2018-12-18T06:24:50.022Z,296.46
2018-12-18T06:25:50.006Z,297.10
2018-12-18T06:26:50.000Z,297.06
2018-12-18T06:27:49.994Z,296.87
2018-12-18T06:28:49.969Z,296.73
2018-12-18T06:29:49.970Z,297.05
2018-12-18T06:30:49.960Z,297.15
2018-12-18T06:31:49.946Z,296.54
2018-12-18T06:32:49.944Z,296.71
2018-12-18T06:33:49.924Z,296.28
2018-12-18T06:34:49.911Z,296.02
2018-12-18T06:35:49.911Z,296.92
2018-12-18T06:36:49.906Z,296.24
2018-12-18T06:37:49.877Z,296.88
2018-12-18T06:38:49.913Z,296.36
2018-12-18T06:39:49.861Z,295.70
2018-12-18T06:40:49.870Z,296.45
2018-12-18T06:41:49.853Z,296.85
2018-12-18T06:42:49.834Z,296.85
2018-12-18T06:43:49.851Z,296.04
2018-12-18T06:44:49.802Z,296.13
2018-12-18T06:45:49.795Z,296.79
2018-12-18T06:46:49.781Z,296.38
2018-12-18T06:47:49.776Z,296.42
2018-12-18T06:48:49.765Z,296.14
2018-12-18T06:49:49.749Z,296.12
2018-12-18T06:50:49.739Z,296.61
2018-12-18T06:51:49.737Z,296.50
2018-12-18T06:52:49.726Z,296.33
2018-12-18T06:53:49.720Z,296.50
2018-12-18T06:54:49.711Z,296.27
2018-12-18T06:55:49.687Z,296.23
2018-12-18T06:56:49.676Z,296.03
2018-12-18T06:57:49.674Z,296.38
2018-12-18T06:58:49.678Z,296.09
2018-12-18T06:59:49.652Z,296.29
2018-12-18T07:00:49.630Z,295.83
2018-12-18T07:01:49.640Z,296.30
2018-12-18T07:02:49.646Z,296.25
2018-12-18T07:03:49.604Z,296.02
2018-12-18T07:04:49.594Z,296.02
2018-12-18T07:05:49.590Z,296.08
2018-12-18T07:06:49.582Z,295.66
2018-12-18T07:07:49.570Z,296.08
2018-12-18T07:08:49.555Z,295.53
2018-12-18T07:09:49.542Z,295.79
2018-12-18T07:10:49.538Z,296.41
2018-12-18T07:11:50.181Z,295.63
2018-12-18T07:12:49.521Z,295.65
2018-12-18T07:13:49.516Z,295.67
2018-12-18T07:14:49.497Z,295.70
2018-12-18T07:15:49.485Z,296.07
2018-12-18T07:16:49.477Z,296.61
2018-12-18T07:17:49.466Z,295.79
2018-12-18T07:18:49.445Z,295.62
2018-12-18T07:19:49.436Z,296.02
2018-12-18T07:20:49.433Z,296.06
2018-12-18T07:21:49.460Z,294.90
2018-12-18T07:22:49.416Z,295.74
2018-12-18T07:23:49.397Z,295.29
2018-12-18T07:24:49.374Z,295.50
2018-12-18T07:25:49.376Z,295.68
2018-12-18T07:26:49.371Z,296.08
2018-12-18T07:27:49.348Z,295.70
2018-12-18T07:28:50.009Z,295.95
2018-12-18T07:29:49.330Z,295.65
2018-12-18T07:30:49.310Z,296.29
2018-12-18T07:31:49.327Z,296.29
2018-12-18T07:32:49.313Z,295.96
2018-12-18T07:33:49.288Z,296.20
2018-12-18T07:34:49.273Z,295.74
2018-12-18T07:35:49.268Z,295.67
2018-12-18T07:36:49.265Z,295.62
2018-12-18T07:37:49.270Z,295.30
2018-12-18T07:38:49.236Z,295.56
2018-12-18T07:39:49.234Z,295.39
2018-12-18T07:40:49.217Z,295.55
2018-12-18T07:41:49.209Z,295.12
2018-12-18T07:42:49.197Z,295.55
2018-12-18T07:43:49.191Z,295.12
2018-12-18T07:44:49.276Z,294.77
2018-12-18T07:45:49.214Z,294.88
2018-12-18T07:46:49.152Z,295.83
2018-12-18T07:47:49.146Z,294.87
2018-12-18T07:48:49.144Z,294.67
2018-12-18T07:49:49.122Z,294.79
2018-12-18T07:50:49.127Z,295.61
2018-12-18T07:51:49.116Z,295.33
2018-12-18T07:52:49.088Z,294.25
2018-12-18T07:53:49.078Z,293.93
2018-12-18T07:54:49.124Z,294.02
2018-12-18T07:55:49.065Z,294.70
2018-12-18T07:56:49.040Z,294.96
2018-12-18T07:57:49.034Z,294.42
2018-12-18T07:58:49.032Z,294.51
2018-12-18T07:59:49.017Z,294.95
2018-12-18T08:00:49.003Z,295.02
2018-12-18T08:01:48.990Z,295.74
2018-12-18T08:02:49.002Z,295.53
2018-12-18T08:03:48.996Z,295.32
2018-12-18T08:04:49.009Z,295.23
2018-12-18T08:05:48.947Z,296.15
2018-12-18T08:06:48.949Z,296.00
2018-12-18T08:07:48.944Z,295.38
2018-12-18T08:08:48.913Z,295.45
2018-12-18T08:09:48.921Z,295.38
2018-12-18T08:10:48.894Z,295.78
2018-12-18T08:11:48.878Z,295.82
2018-12-18T08:12:48.877Z,295.29
2018-12-18T08:13:48.861Z,296.31
2018-12-18T08:14:48.869Z,296.05
2018-12-18T08:15:48.843Z,296.80
2018-12-18T08:16:48.837Z,295.65
2018-12-18T08:17:48.822Z,296.22
2018-12-18T08:18:48.820Z,296.62
2018-12-18T08:19:48.803Z,296.43
2018-12-18T08:20:48.785Z,296.11
2018-12-18T08:21:48.788Z,296.64
2018-12-18T08:22:48.771Z,296.64
2018-12-18T08:23:48.768Z,297.03
2018-12-18T08:24:48.771Z,296.62
2018-12-18T08:25:48.781Z,296.83
2018-12-18T08:26:49.475Z,296.37
2018-12-18T08:27:48.729Z,296.61
2018-12-18T08:28:48.706Z,296.92
2018-12-18T08:29:48.702Z,296.33
2018-12-18T08:30:48.687Z,296.58
2018-12-18T08:31:48.671Z,297.27
2018-12-18T08:32:48.657Z,296.54
2018-12-18T08:33:48.755Z,296.55
2018-12-18T08:34:48.754Z,297.13
2018-12-18T08:35:48.640Z,296.72
2018-12-18T08:36:48.629Z,297.20
2018-12-18T08:37:48.958Z,297.03
2018-12-18T08:38:48.621Z,295.71
2018-12-18T08:39:48.619Z,296.33
2018-12-18T08:40:48.599Z,295.91
2018-12-18T08:41:48.813Z,296.23
2018-12-18T08:42:48.572Z,295.75
2018-12-18T08:43:48.583Z,296.16
2018-12-18T08:44:48.538Z,295.67
2018-12-18T08:45:48.540Z,295.28
2018-12-18T08:46:48.514Z,295.00
2018-12-18T08:47:48.855Z,294.67
2018-12-18T08:48:48.499Z,295.54
2018-12-18T08:49:48.483Z,295.08
2018-12-18T08:50:48.476Z,295.23
2018-12-18T08:51:48.475Z,294.92
2018-12-18T08:52:48.537Z,295.65
2018-12-18T08:53:48.466Z,295.51
2018-12-18T08:54:48.499Z,296.21
2018-12-18T08:55:48.424Z,297.04
2018-12-18T08:56:48.423Z,296.13
2018-12-18T08:57:48.395Z,297.22
2018-12-18T08:58:48.406Z,296.46
2018-12-18T08:59:48.388Z,296.22
2018-12-18T09:00:48.377Z,297.13
2018-12-18T09:01:48.371Z,296.84
2018-12-18T09:02:48.354Z,296.88
2018-12-18T09:03:48.349Z,296.60
2018-12-18T09:04:48.343Z,297.21
2018-12-18T09:05:48.339Z,296.83
2018-12-18T09:06:48.330Z,296.74
2018-12-18T09:07:48.333Z,296.98
2018-12-18T09:08:48.797Z,296.83
2018-12-18T09:09:48.289Z,296.62
2018-12-18T09:10:48.736Z,297.74
2018-12-18T09:11:48.280Z,297.41
2018-12-18T09:12:48.264Z,297.81
2018-12-18T09:13:48.258Z,297.08
2018-12-18T09:14:48.229Z,297.06
2018-12-18T09:15:48.223Z,297.51
2018-12-18T09:16:48.217Z,296.99
2018-12-18T09:17:48.211Z,297.92
2018-12-18T09:18:48.194Z,297.42
2018-12-18T09:19:48.177Z,297.20
2018-12-18T09:20:48.164Z,296.87
2018-12-18T09:21:48.177Z,297.00
2018-12-18T09:22:48.146Z,297.36
2018-12-18T09:23:48.180Z,298.03
2018-12-18T09:24:48.137Z,296.93
2018-12-18T09:25:48.148Z,297.47
2018-12-18T09:26:48.107Z,297.32
2018-12-18T09:27:48.088Z,297.67
2018-12-18T09:28:48.095Z,296.93
2018-12-18T09:29:48.140Z,296.70
2018-12-18T09:30:48.054Z,296.99
2018-12-18T09:31:48.515Z,297.34
2018-12-18T09:32:48.040Z,297.42
2018-12-18T09:33:48.038Z,297.08
2018-12-18T09:34:48.018Z,297.29
2018-12-18T09:35:49.818Z,296.46
2018-12-18T09:36:48.011Z,297.29
2018-12-18T09:37:48.003Z,297.02
2018-12-18T09:38:48.475Z,296.36
2018-12-18T09:39:47.961Z,297.40
2018-12-18T09:40:47.982Z,297.03
2018-12-18T09:41:47.941Z,297.19
2018-12-18T09:42:47.983Z,296.61
2018-12-18T09:43:47.945Z,296.18
2018-12-18T09:44:47.927Z,296.51
2018-12-18T09:45:47.927Z,296.97
2018-12-18T09:46:47.914Z,297.18
2018-12-18T09:47:48.032Z,296.96
2018-12-18T09:48:47.871Z,296.50
2018-12-18T09:49:47.854Z,297.20
2018-12-18T09:50:47.859Z,297.48
2018-12-18T09:51:47.839Z,296.25
2018-12-18T09:52:47.822Z,297.00
2018-12-18T09:53:47.822Z,296.95
2018-12-18T09:54:47.954Z,297.68
2018-12-18T09:55:47.889Z,297.07
2018-12-18T09:56:47.801Z,296.40
2018-12-18T09:57:47.781Z,297.86
2018-12-18T09:58:47.749Z,297.37
2018-12-18T09:59:47.747Z,296.82
2018-12-18T10:00:47.746Z,297.03
2018-12-18T10:01:47.735Z,296.89
2018-12-18T10:02:47.793Z,297.16
2018-12-18T10:03:47.715Z,297.43
2018-12-18T10:04:47.751Z,296.96
2018-12-18T10:05:47.679Z,297.36
2018-12-18T10:06:47.678Z,297.37
2018-12-18T10:07:47.652Z,296.73
2018-12-18T10:08:47.653Z,296.90
2018-12-18T10:09:47.655Z,297.10
2018-12-18T10:10:47.629Z,296.31
2018-12-18T10:11:47.619Z,296.15
2018-12-18T10:12:47.602Z,297.25
2018-12-18T10:13:47.661Z,297.38
2018-12-18T10:14:47.662Z,296.84
2018-12-18T10:15:47.602Z,297.16
2018-12-18T10:16:47.590Z,296.01
2018-12-18T10:17:47.548Z,296.56
2018-12-18T10:18:48.887Z,296.94
2018-12-18T10:19:47.540Z,296.09
2018-12-18T10:20:47.520Z,296.80
2018-12-18T10:21:47.505Z,296.86
2018-12-18T10:22:47.609Z,296.87
2018-12-18T10:23:47.491Z,297.08
2018-12-18T10:24:47.478Z,296.55
2018-12-18T10:25:47.481Z,296.62
2018-12-18T10:26:47.467Z,296.72
2018-12-18T10:27:47.498Z,296.74
2018-12-18T10:28:47.435Z,296.60
2018-12-18T10:29:47.443Z,295.83
2018-12-18T10:30:47.415Z,296.76
2018-12-18T10:31:47.406Z,296.53
2018-12-18T10:32:47.404Z,296.76
2018-12-18T10:33:47.377Z,295.94
2018-12-18T10:34:47.383Z,296.49
2018-12-18T10:35:47.428Z,296.91
2018-12-18T10:36:47.359Z,296.65
2018-12-18T10:37:47.349Z,296.67
2018-12-18T10:38:47.373Z,296.50
2018-12-18T10:39:47.408Z,296.49
2018-12-18T10:40:47.318Z,296.99
2018-12-18T10:41:47.312Z,296.95
2018-12-18T10:42:47.298Z,296.89
2018-12-18T10:43:47.298Z,297.15
2018-12-18T10:44:47.305Z,297.57
2018-12-18T10:45:47.264Z,296.78
2018-12-18T10:46:47.244Z,296.85
2018-12-18T10:47:47.247Z,297.60
2018-12-18T10:48:47.247Z,296.74
2018-12-18T10:49:47.319Z,296.75
2018-12-18T10:50:47.213Z,296.97
2018-12-18T10:51:47.206Z,296.61
2018-12-18T10:52:47.187Z,297.14
2018-12-18T10:53:47.199Z,297.33
2018-12-18T10:54:47.171Z,296.91
2018-12-18T10:55:47.173Z,297.28
2018-12-18T10:56:47.178Z,296.55
2018-12-18T10:57:47.165Z,296.64
2018-12-18T10:58:47.138Z,297.12
2018-12-18T10:59:47.113Z,296.68
2018-12-18T11:00:47.134Z,296.32
2018-12-18T11:01:47.123Z,297.40
2018-12-18T11:02:47.093Z,296.68
2018-12-18T11:03:47.075Z,296.73
2018-12-18T11:04:47.067Z,296.83
2018-12-18T11:05:47.082Z,297.05
2018-12-18T11:06:47.075Z,296.66
2018-12-18T11:07:47.074Z,296.97
2018-12-18T11:08:47.057Z,296.50
2018-12-18T11:09:47.009Z,296.84
2018-12-18T11:10:47.006Z,296.63
2018-12-18T11:11:47.036Z,296.35
2018-12-18T11:12:47.002Z,296.29
2018-12-18T11:13:47.047Z,296.22
2018-12-18T11:14:47.030Z,296.59
2018-12-18T11:15:46.974Z,296.63
2018-12-18T11:16:47.011Z,296.62
2018-12-18T11:17:46.929Z,295.87
2018-12-18T11:18:46.923Z,296.33
2018-12-18T11:19:46.945Z,295.96
2018-12-18T11:20:46.936Z,296.28
2018-12-18T11:21:46.893Z,297.04
2018-12-18T11:22:46.885Z,296.30
2018-12-18T11:23:46.864Z,296.67
2018-12-18T11:24:46.871Z,296.41
2018-12-18T11:25:46.856Z,296.37
2018-12-18T11:26:47.887Z,296.34
2018-12-18T11:27:46.822Z,296.91
2018-12-18T11:28:46.890Z,297.01
2018-12-18T11:29:46.814Z,296.39
2018-12-18T11:30:46.819Z,297.11
2018-12-18T11:31:46.782Z,296.67
2018-12-18T11:32:46.768Z,297.00
2018-12-18T11:33:46.769Z,296.62
2018-12-18T11:34:46.758Z,296.60
2018-12-18T11:35:46.736Z,296.47
2018-12-18T11:36:46.731Z,296.76
2018-12-18T11:37:46.720Z,296.08
2018-12-18T11:38:46.702Z,296.19
2018-12-18T11:39:46.694Z,296.91
2018-12-18T11:40:46.691Z,295.71
2018-12-18T11:41:46.694Z,296.63
2018-12-18T11:42:46.674Z,296.36
2018-12-18T11:43:46.655Z,296.51
2018-12-18T11:44:46.638Z,296.68
2018-12-18T11:45:46.628Z,296.74
2018-12-18T11:46:46.696Z,296.47
2018-12-18T11:47:46.708Z,296.42
2018-12-18T11:48:46.602Z,296.75
2018-12-18T11:49:46.602Z,296.69
2018-12-18T11:50:46.587Z,296.50
2018-12-18T11:51:46.572Z,295.92
2018-12-18T11:52:46.567Z,296.79
2018-12-18T11:53:46.552Z,296.05
2018-12-18T11:54:46.553Z,297.03
2018-12-18T11:55:46.529Z,296.46
2018-12-18T11:56:46.523Z,296.15
2018-12-18T11:57:46.513Z,296.46
2018-12-18T11:58:46.494Z,296.05
2018-12-18T11:59:46.499Z,296.36
2018-12-18T12:00:46.466Z,296.49
2018-12-18T12:01:46.464Z,296.03
2018-12-18T12:02:46.470Z,295.90
2018-12-18T12:03:46.446Z,296.18
2018-12-18T12:04:46.462Z,296.55
2018-12-18T12:05:46.432Z,296.67
2018-12-18T12:06:46.409Z,296.50
2018-12-18T12:07:46.405Z,296.49
2018-12-18T12:08:46.394Z,296.39
2018-12-18T12:09:46.423Z,296.30
2018-12-18T12:10:46.439Z,296.35
2018-12-18T12:11:46.399Z,296.26
2018-12-18T12:12:46.370Z,296.37
2018-12-18T12:13:46.346Z,297.12
2018-12-18T12:14:46.358Z,295.82
2018-12-18T12:15:46.315Z,295.96
2018-12-18T12:16:46.352Z,297.12
2018-12-18T12:17:46.359Z,296.28
2018-12-18T12:18:46.292Z,295.98
2018-12-18T12:19:46.278Z,296.11
2018-12-18T12:20:46.271Z,295.95
2018-12-18T12:21:46.253Z,296.86
2018-12-18T12:22:46.243Z,296.39
2018-12-18T12:23:46.230Z,296.16
2018-12-18T12:24:46.216Z,295.72
2018-12-18T12:25:46.219Z,296.29
2018-12-18T12:26:46.226Z,296.22
2018-12-18T12:27:46.202Z,295.72
2018-12-18T12:28:46.198Z,296.27